Time;durP1;ratioP1;P1;durP2;ratioP2;P2;SDS_P1;SDS_P2;PMS_P1;PMS_P2;Temp;Humidity;BMP_temperature;BMP_pressure;BME280_temperature;BME280_humidity;BME280_pressure;Samples;Min_cycle;Max_cycle;Signal;HPM_P1;HPM_P2
2021/05/18 00:00:21;;;;;;;;;;;;;;;23.35;62.40;100345.91;5033097;28;1323;-70
2021/05/18 00:02:46;;;;;;;;;;;;;;;23.35;62.47;100358.84;5050971;28;1090;-70
2021/05/18 00:05:12;;;;;;;;;;;;;;;23.35;62.14;100336.84;5051102;28;842;-70
2021/05/18 00:07:39;;;;;;;;;;;;;;;23.34;62.27;100349.75;5050941;28;901;-71
2021/05/18 00:12:49;;;;;;;;;;;;;;;23.35;62.26;100392.63;5050912;28;867;-71
2021/05/18 00:15:16;;;;;;;;;;;;;;;23.36;62.40;100394.22;5050569;28;1878;-70
2021/05/18 00:17:42;;;;;;;;;;;;;;;23.35;62.68;100389.88;5050510;28;1266;-70
2021/05/18 00:20:10;;;;;;;;;;;;;;;23.36;62.34;100407.16;5050713;28;930;-70
2021/05/18 00:22:36;;;;;;;;;;;;;;;23.36;62.35;100409.91;5050165;28;1282;-70
2021/05/18 00:25:01;;;;;;;;;;;;;;;23.35;62.62;100409.09;5050383;28;1175;-69
2021/05/18 00:27:29;;;;;;;;;;;;;;;23.35;62.88;100403.63;5045394;28;1669;-69
2021/05/18 00:29:55;;;;;;;;;;;;;;;23.36;62.68;100399.72;5048599;28;893;-70
2021/05/18 00:32:20;;;;;;;;;;;;;;;23.33;63.13;100398.44;5039789;28;843;-70
2021/05/18 00:34:45;;;;;;;;;;;;;;;23.31;62.71;100397.94;5050476;28;1964;-70
2021/05/18 00:37:10;;;;;;;;;;;;;;;23.33;62.82;100405.88;5050700;28;1334;-71
2021/05/18 00:39:36;;;;;;;;;;;;;;;23.32;63.06;100398.75;5041765;28;1788;-70
2021/05/18 00:42:01;;;;;;;;;;;;;;;23.33;63.04;100392.94;5038348;28;1746;-71
2021/05/18 00:44:26;;;;;;;;;;;;;;;23.34;63.14;100385.50;5040671;28;1671;-70
2021/05/18 00:46:52;;;;;;;;;;;;;;;23.33;63.41;100390.19;5041346;28;913;-70
2021/05/18 00:49:17;;;;;;;;;;;;;;;23.35;63.20;100389.06;5044097;28;2150;-71
2021/05/18 00:51:42;;;;;;;;;;;;;;;23.35;63.32;100389.06;5042196;28;1664;-71
2021/05/18 00:54:16;;;;;;;;;;;;;;;23.35;63.26;100400.06;5042554;28;1729;-71
2021/05/18 00:59:07;;;;;;;;;;;;;;;23.36;63.42;100404.41;5044068;28;1442;-70
2021/05/18 01:01:33;;;;;;;;;;;;;;;23.35;63.26;100403.63;5045255;28;1573;-71
2021/05/18 01:03:59;;;;;;;;;;;;;;;23.35;63.29;100389.88;5044834;28;1875;-72
2021/05/18 01:06:30;;;;;;;;;;;;;;;23.38;62.97;100394.75;5024138;28;1686;-70
2021/05/18 01:09:10;;;;;;;;;;;;;;;23.37;63.20;100408.78;5044254;28;1553;-69
2021/05/18 01:11:43;;;;;;;;;;;;;;;23.37;63.10;100412.34;5043870;28;1930;-71
2021/05/18 01:14:14;;;;;;;;;;;;;;;23.36;62.86;100418.97;5036217;28;1997;-71
2021/05/18 01:16:43;;;;;;;;;;;;;;;23.37;62.96;100412.34;5039225;28;1878;-71
2021/05/18 01:19:09;;;;;;;;;;;;;;;23.37;62.79;100397.81;5030453;28;934;-69
2021/05/18 01:21:35;;;;;;;;;;;;;;;23.37;62.95;100403.31;5041516;28;1749;-70
2021/05/18 01:24:00;;;;;;;;;;;;;;;23.35;62.82;100397.31;5030441;28;1934;-71
2021/05/18 01:26:28;;;;;;;;;;;;;;;23.36;62.87;100396.97;5041452;28;894;-68
2021/05/18 01:28:53;;;;;;;;;;;;;;;23.38;62.85;100402.16;5029620;28;839;-71
2021/05/18 01:31:24;;;;;;;;;;;;;;;23.38;62.95;100374.66;5030436;28;900;-70
2021/05/18 01:33:51;;;;;;;;;;;;;;;23.38;63.03;100371.91;5030258;28;920;-70
2021/05/18 01:36:18;;;;;;;;;;;;;;;23.37;62.99;100367.56;5033891;28;1986;-70
2021/05/18 01:44:13;;;;;;;;;;;;;;;23.36;62.79;100354.94;5033698;28;890;-70
2021/05/18 01:46:39;;;;;;;;;;;;;;;23.36;62.71;100338.47;5033847;28;857;-70
2021/05/18 01:49:09;;;;;;;;;;;;;;;23.34;62.83;100319.53;5041079;28;1935;-70
2021/05/18 01:51:38;;;;;;;;;;;;;;;23.33;62.91;100321.47;5042752;28;810;-70
2021/05/18 01:54:14;;;;;;;;;;;;;;;23.34;62.79;100327.78;5038120;28;872;-70
2021/05/18 01:59:06;;;;;;;;;;;;;;;23.34;62.70;100325.03;5033827;28;927;-70
2021/05/18 02:01:32;;;;;;;;;;;;;;;23.33;62.56;100323.44;5037107;28;1706;-70
2021/05/18 02:03:57;;;;;;;;;;;;;;;23.35;62.73;100331.34;5033454;28;840;-70
2021/05/18 02:06:23;;;;;;;;;;;;;;;23.33;62.73;100331.69;5051041;28;902;-70
2021/05/18 02:08:48;;;;;;;;;;;;;;;23.33;62.69;100346.22;5053389;28;916;-70
2021/05/18 02:11:13;;;;;;;;;;;;;;;23.33;62.63;100361.91;5041200;28;1698;-70
2021/05/18 02:13:45;;;;;;;;;;;;;;;23.32;62.62;100358.34;5033212;28;859;-70
2021/05/18 02:16:14;;;;;;;;;;;;;;;23.32;62.76;100360.28;5033025;28;1929;-70
2021/05/18 02:18:54;;;;;;;;;;;;;;;23.31;62.69;100355.91;5033220;28;877;-70
2021/05/18 02:26:29;;;;;;;;;;;;;;;23.30;62.51;100351.53;5038533;28;836;-70
2021/05/18 02:28:54;;;;;;;;;;;;;;;23.31;62.44;100353.97;5053332;28;909;-70
2021/05/18 02:31:21;;;;;;;;;;;;;;;23.31;62.46;100358.66;5045507;28;1678;-70
2021/05/18 02:33:50;;;;;;;;;;;;;;;23.30;62.55;100366.13;5032957;28;842;-70
2021/05/18 02:36:21;;;;;;;;;;;;;;;23.29;62.61;100363.69;5049536;28;1981;-70
2021/05/18 02:38:47;;;;;;;;;;;;;;;23.28;62.52;100371.13;5052937;28;972;-70
2021/05/18 02:41:12;;;;;;;;;;;;;;;23.29;62.34;100391.97;5041661;28;1713;-70
2021/05/18 02:43:46;;;;;;;;;;;;;;;23.30;62.34;100399.09;5040618;28;876;-70
2021/05/18 02:49:08;;;;;;;;;;;;;;;23.28;62.34;100395.84;5032799;28;928;-70
2021/05/18 02:51:34;;;;;;;;;;;;;;;23.27;62.37;100402.47;5035330;28;1529;-71
2021/05/18 02:53:59;;;;;;;;;;;;;;;23.28;62.28;100408.75;5032961;28;882;-71
2021/05/18 02:56:31;;;;;;;;;;;;;;;23.27;62.16;100407.97;5052188;28;1933;-71
2021/05/18 02:59:07;;;;;;;;;;;;;;;23.26;62.42;100387.13;5052674;28;949;-71
2021/05/18 03:01:32;;;;;;;;;;;;;;;23.27;62.03;100385.97;5052534;28;846;-71
2021/05/18 03:03:58;;;;;;;;;;;;;;;23.26;62.13;100387.13;5052072;28;1253;-71
2021/05/18 03:06:23;;;;;;;;;;;;;;;23.26;62.24;100389.88;5034321;28;1169;-71
2021/05/18 03:08:49;;;;;;;;;;;;;;;23.27;62.27;100398.91;5051811;28;810;-71
2021/05/18 03:11:15;;;;;;;;;;;;;;;23.25;62.38;100399.22;5041575;28;890;-70
2021/05/18 03:13:40;;;;;;;;;;;;;;;23.25;62.46;100401.97;5032164;28;866;-70
2021/05/18 03:16:06;;;;;;;;;;;;;;;23.25;62.27;100396.47;5032253;28;1943;-70
2021/05/18 03:18:31;;;;;;;;;;;;;;;23.25;62.32;100404.72;5032302;28;1256;-70
2021/05/18 03:20:57;;;;;;;;;;;;;;;23.25;62.50;100404.72;5037790;28;1698;-70
2021/05/18 03:23:22;;;;;;;;;;;;;;;23.26;62.35;100416.50;5040697;28;1059;-70
2021/05/18 03:25:48;;;;;;;;;;;;;;;23.26;62.41;100428.34;5045067;28;892;-70
2021/05/18 03:28:13;;;;;;;;;;;;;;;23.27;62.33;100434.63;5052015;28;899;-70
2021/05/18 03:36:14;;;;;;;;;;;;;;;23.31;62.42;100444.66;5032206;28;1914;-71
2021/05/18 03:38:42;;;;;;;;;;;;;;;23.32;62.39;100448.22;5040321;28;1981;-70
2021/05/18 03:41:20;;;;;;;;;;;;;;;23.32;62.06;100446.28;5051552;28;918;-74
2021/05/18 03:44:02;;;;;;;;;;;;;;;23.28;62.16;100444.47;5051668;28;905;-66
2021/05/18 03:54:26;;;;;;;;;;;;;;;23.24;60.07;100471.81;5032483;28;727;-77
2021/05/18 05:09:32;;;;;;;;;;;;;;;23.15;63.08;100558.88;5007713;28;1104;-71
2021/05/18 05:14:39;;;;;;;;;;;;;;;23.16;62.71;100545.94;5043771;28;1684;-71
2021/05/18 05:17:04;;;;;;;;;;;;;;;23.15;62.52;100549.84;5032543;28;1953;-71
2021/05/18 05:19:30;;;;;;;;;;;;;;;23.15;62.51;100545.13;5033957;28;1704;-71
2021/05/18 05:21:56;;;;;;;;;;;;;;;23.16;62.52;100538.53;5038568;28;1604;-69
2021/05/18 05:24:21;;;;;;;;;;;;;;;23.18;62.32;100524.47;5040390;28;1400;-68
2021/05/18 05:26:47;;;;;;;;;;;;;;;23.19;62.88;100504.13;5032912;28;1772;-70
2021/05/18 05:29:13;;;;;;;;;;;;;;;23.18;63.03;100489.56;5038366;28;1760;-73
2021/05/18 05:31:39;;;;;;;;;;;;;;;23.23;63.32;100491.34;5046232;28;861;-69
2021/05/18 05:34:05;;;;;;;;;;;;;;;23.29;64.12;100490.88;5052023;28;830;-69
2021/05/18 05:36:30;;;;;;;;;;;;;;;23.36;64.46;100506.09;5035648;28;1910;-74
2021/05/18 05:39:05;;;;;;;;;;;;;;;23.32;64.47;100519.66;5032423;28;833;-73
2021/05/18 05:41:30;;;;;;;;;;;;;;;23.29;64.88;100514.81;5036862;28;1745;-71
2021/05/18 05:43:56;;;;;;;;;;;;;;;23.32;65.45;100508.66;5047500;28;1041;-68
2021/05/18 05:46:21;;;;;;;;;;;;;;;23.38;66.04;100490.09;5052250;28;1286;-71
2021/05/18 05:48:52;;;;;;;;;;;;;;;23.37;66.13;100496.75;5052062;28;1179;-71
2021/05/18 05:51:18;;;;;;;;;;;;;;;23.37;66.37;100521.47;5051620;28;1031;-69
2021/05/18 05:53:43;;;;;;;;;;;;;;;23.35;62.47;100567.72;5031389;28;1041;-69
2021/05/18 05:56:08;;;;;;;;;;;;;;;23.27;61.05;100575.59;5037105;28;1887;-70
2021/05/18 05:58:34;;;;;;;;;;;;;;;23.26;59.92;100581.38;5051729;28;1247;-69
2021/05/18 06:01:00;;;;;;;;;;;;;;;23.23;59.97;100579.28;5051448;28;1327;-71
2021/05/18 06:03:25;;;;;;;;;;;;;;;23.24;60.96;100567.16;5051721;28;1229;-71
2021/05/18 06:05:51;;;;;;;;;;;;;;;23.26;62.01;100548.41;5050656;28;1342;-71
2021/05/18 06:08:16;;;;;;;;;;;;;;;23.28;62.48;100552.50;5045974;28;1167;-71
2021/05/18 06:10:44;;;;;;;;;;;;;;;23.27;61.42;100563.78;5044551;28;1059;-71
2021/05/18 06:42:45;;;;;;;;;;;;;;;23.29;60.38;100504.63;5041034;28;1621;-72
2021/05/18 06:47:54;;;;;;;;;;;;;;;23.28;60.63;100508.53;5044082;28;736;-72
2021/05/18 06:52:46;;;;;;;;;;;;;;;23.30;60.66;100494.44;5050302;28;723;-72
2021/05/18 06:55:14;;;;;;;;;;;;;;;23.32;61.19;100501.25;5050166;28;1877;-72
2021/05/18 06:57:48;;;;;;;;;;;;;;;23.32;61.34;100514.16;5050786;28;818;-72
2021/05/18 07:00:21;;;;;;;;;;;;;;;23.33;61.12;100513.06;5050783;28;997;-72
2021/05/18 07:02:47;;;;;;;;;;;;;;;23.35;61.20;100513.53;5050323;28;917;-72
2021/05/18 07:05:22;;;;;;;;;;;;;;;23.34;61.36;100511.91;5050840;28;814;-71
2021/05/18 07:07:53;;;;;;;;;;;;;;;23.33;61.23;100511.09;5050747;28;799;-71
2021/05/18 07:10:19;;;;;;;;;;;;;;;23.33;60.61;100508.34;5049935;28;1226;-71
2021/05/18 07:12:44;;;;;;;;;;;;;;;23.32;61.21;100509.50;5050559;28;850;-71
2021/05/18 07:15:10;;;;;;;;;;;;;;;23.32;61.05;100509.50;5051164;28;1953;-71
2021/05/18 07:17:35;;;;;;;;;;;;;;;23.33;61.15;100513.84;5049957;28;798;-72
2021/05/18 07:20:01;;;;;;;;;;;;;;;23.34;61.76;100514.66;5049934;28;794;-72
2021/05/18 07:22:26;;;;;;;;;;;;;;;23.34;61.30;100503.66;5050088;28;1122;-72
2021/05/18 07:24:51;;;;;;;;;;;;;;;23.36;60.99;100497.84;5049658;28;1224;-72
2021/05/18 07:27:17;;;;;;;;;;;;;;;23.35;60.37;100502.53;5050047;28;807;-73
2021/05/18 07:29:42;;;;;;;;;;;;;;;23.33;60.32;100499.31;5041222;28;1685;-72
2021/05/18 07:32:08;;;;;;;;;;;;;;;23.35;60.20;100512.75;5041598;28;850;-73
2021/05/18 07:34:33;;;;;;;;;;;;;;;23.36;60.74;100509.66;5048729;28;1392;-72
2021/05/18 07:36:58;;;;;;;;;;;;;;;23.35;61.12;100510.78;5046882;28;1910;-73
2021/05/18 07:39:24;;;;;;;;;;;;;;;23.36;60.93;100515.16;5050311;28;2014;-72
2021/05/18 07:41:50;;;;;;;;;;;;;;;23.39;62.20;100511.78;5047780;28;1772;-72
2021/05/18 07:44:15;;;;;;;;;;;;;;;23.38;61.41;100509.34;5041875;28;2344;-71
2021/05/18 07:46:42;;;;;;;;;;;;;;;23.37;60.52;100505.78;5048604;28;1692;-72
2021/05/18 08:07:21;;;;;;;;;;;;;;;23.48;62.16;100539.28;5048888;28;1528;-70
2021/05/18 08:09:55;;;;;;;;;;;;;;;23.49;61.93;100549.16;5045375;28;1786;-71
2021/05/18 08:12:20;;;;;;;;;;;;;;;23.47;62.04;100546.72;5048440;28;1398;-71
2021/05/18 08:15:07;;;;;;;;;;;;;;;23.47;61.96;100543.97;5045216;28;1507;-71
2021/05/18 10:26:03;;;;;;;;;;;;;;;23.49;55.68;100602.19;5042495;28;2080;-73
2021/05/18 10:28:01;;;;;;;;;;;;;;;23.51;55.39;100597.19;5035821;28;1884;-72
2021/05/18 10:38:20;;;;;;;;;;;;;;;23.59;57.94;100589.31;5035598;28;1866;-67
2021/05/18 10:40:46;;;;;;;;;;;;;;;23.66;57.73;100582.22;5040303;28;1222;-68
2021/05/18 10:43:16;;;;;;;;;;;;;;;23.65;57.57;100585.28;5047982;28;886;-67
2021/05/18 10:45:54;;;;;;;;;;;;;;;23.67;57.10;100583.81;5032607;28;950;-69
2021/05/18 10:48:26;;;;;;;;;;;;;;;23.63;56.71;100574.59;5032701;28;972;-69
2021/05/18 10:50:51;;;;;;;;;;;;;;;23.64;56.76;100562.47;5037040;28;1548;-69
2021/05/18 10:53:20;;;;;;;;;;;;;;;23.64;56.51;100567.16;5032027;28;834;-69
2021/05/18 10:56:05;;;;;;;;;;;;;;;23.65;56.40;100564.09;5040290;28;1939;-69
2021/05/18 10:58:31;;;;;;;;;;;;;;;23.66;56.34;100567.63;5052239;28;941;-69
2021/05/18 11:00:57;;;;;;;;;;;;;;;23.67;56.38;100569.28;5052353;28;881;-69
2021/05/18 11:03:22;;;;;;;;;;;;;;;23.69;56.30;100575.25;5052395;28;873;-67
2021/05/18 11:05:50;;;;;;;;;;;;;;;23.67;55.91;100569.28;5052099;28;827;-67
2021/05/18 11:08:15;;;;;;;;;;;;;;;23.62;55.61;100574.91;5050911;28;1299;-67
2021/05/18 11:10:41;;;;;;;;;;;;;;;23.61;55.11;100571.34;5050892;28;1261;-67
2021/05/18 11:13:08;;;;;;;;;;;;;;;23.60;54.94;100563.41;5051153;28;911;-68
2021/05/18 11:15:34;;;;;;;;;;;;;;;23.58;54.60;100547.22;5051105;28;1871;-67
2021/05/18 11:17:59;;;;;;;;;;;;;;;23.58;54.43;100555.47;5051021;28;791;-67
2021/05/18 11:25:50;;;;;;;;;;;;;;;23.56;54.37;100540.44;5050849;28;1023;-67
2021/05/18 11:28:21;;;;;;;;;;;;;;;23.58;54.64;100535.44;5050870;28;865;-67
2021/05/18 11:30:48;;;;;;;;;;;;;;;23.59;54.19;100528.81;5042676;28;1442;-67
2021/05/18 11:33:13;;;;;;;;;;;;;;;23.58;53.79;100538.19;5050979;28;826;-68
2021/05/18 11:35:39;;;;;;;;;;;;;;;23.58;54.03;100540.94;5042440;28;1977;-67
2021/05/18 11:38:18;;;;;;;;;;;;;;;23.60;53.95;100535.91;5040907;28;1729;-67
2021/05/18 11:40:48;;;;;;;;;;;;;;;23.59;53.01;100528.81;5029033;28;1507;-67
2021/05/18 11:43:17;;;;;;;;;;;;;;;23.58;52.56;100528.00;5046482;28;1756;-67
2021/05/18 11:45:43;;;;;;;;;;;;;;;23.58;51.92;100522.50;5040495;28;873;-67
2021/05/18 11:48:13;;;;;;;;;;;;;;;23.56;51.34;100541.25;5030663;28;822;-71
2021/05/18 11:50:38;;;;;;;;;;;;;;;23.63;52.13;100524.28;5038440;28;1574;-67
2021/05/18 11:53:03;;;;;;;;;;;;;;;23.66;53.83;100526.38;5046977;28;2070;-67
2021/05/18 11:55:30;;;;;;;;;;;;;;;23.67;53.91;100539.81;5044099;28;1929;-67
2021/05/18 11:57:56;;;;;;;;;;;;;;;23.70;53.42;100535.63;5050558;28;1772;-67
2021/05/18 12:00:23;;;;;;;;;;;;;;;23.72;53.73;100530.59;5039270;28;2038;-67
2021/05/18 12:02:57;;;;;;;;;;;;;;;23.71;53.85;100535.31;5038543;28;877;-69
2021/05/18 12:05:22;;;;;;;;;;;;;;;23.75;54.12;100523.69;5030955;28;898;-67
2021/05/18 12:07:48;;;;;;;;;;;;;;;23.77;54.50;100529.66;5031425;28;830;-67
2021/05/18 12:10:25;;;;;;;;;;;;;;;23.79;53.02;100517.25;5042253;28;1999;-70
2021/05/18 12:12:50;;;;;;;;;;;;;;;23.74;55.05;100525.59;5036177;28;1896;-68
2021/05/18 12:15:16;;;;;;;;;;;;;;;23.81;54.41;100519.69;5042459;28;1873;-68
2021/05/18 12:17:42;;;;;;;;;;;;;;;23.81;53.46;100514.19;5032030;28;2061;-68
2021/05/18 12:20:13;;;;;;;;;;;;;;;23.89;49.21;100524.38;5038544;28;1979;-68
2021/05/18 12:22:43;;;;;;;;;;;;;;;23.98;49.68;100514.16;5034288;28;1671;-69
2021/05/18 12:25:09;;;;;;;;;;;;;;;23.93;52.19;100509.66;5039991;28;1917;-68
2021/05/18 12:27:44;;;;;;;;;;;;;;;23.88;52.56;100512.53;5038334;28;1816;-69
2021/05/18 12:30:10;;;;;;;;;;;;;;;23.89;52.89;100502.38;5035504;28;1217;-68
2021/05/18 12:32:44;;;;;;;;;;;;;;;23.91;52.81;100498.16;5043452;28;1721;-68
2021/05/18 12:35:17;;;;;;;;;;;;;;;23.91;52.80;100503.66;5034089;28;1828;-68
2021/05/18 12:37:44;;;;;;;;;;;;;;;23.91;52.87;100503.66;5037749;28;1987;-67
2021/05/18 12:40:19;;;;;;;;;;;;;;;23.96;52.33;100507.38;5043530;28;2082;-68
2021/05/18 12:42:45;;;;;;;;;;;;;;;23.98;52.20;100481.16;5030813;28;915;-68
2021/05/18 12:45:17;;;;;;;;;;;;;;;23.98;52.48;100494.13;5030559;28;834;-68
2021/05/18 12:47:43;;;;;;;;;;;;;;;23.97;52.81;100498.00;5037766;28;2069;-68
2021/05/18 12:50:09;;;;;;;;;;;;;;;23.96;53.15;100510.13;5041103;28;1707;-67
2021/05/18 12:52:42;;;;;;;;;;;;;;;23.99;53.28;100504.81;5046367;28;1720;-67
2021/05/18 12:55:24;;;;;;;;;;;;;;;24.03;52.99;100510.47;5049090;28;1225;-68
2021/05/18 12:57:52;;;;;;;;;;;;;;;24.03;52.80;100504.97;5050641;28;865;-68
2021/05/18 13:00:21;;;;;;;;;;;;;;;24.07;52.00;100511.44;5050303;28;818;-69
2021/05/18 13:02:47;;;;;;;;;;;;;;;24.09;52.26;100506.44;5050313;28;980;-68
2021/05/18 13:05:17;;;;;;;;;;;;;;;24.10;51.13;100514.34;5050182;28;803;-69
2021/05/18 13:07:44;;;;;;;;;;;;;;;24.12;50.93;100514.81;5049413;28;2076;-69
2021/05/18 13:10:27;;;;;;;;;;;;;;;24.12;50.29;100523.06;5035922;28;1996;-69
2021/05/18 13:13:03;;;;;;;;;;;;;;;24.15;40.83;100499.63;5042780;28;883;-69
2021/05/18 13:15:28;;;;;;;;;;;;;;;24.37;34.80;100509.66;5030835;28;1940;-68
2021/05/18 13:17:55;;;;;;;;;;;;;;;24.35;35.63;100506.41;5035625;28;1721;-68
2021/05/18 13:20:20;;;;;;;;;;;;;;;24.30;33.81;100509.31;5038422;28;1667;-68
2021/05/18 13:22:51;;;;;;;;;;;;;;;24.24;33.65;100508.66;5035460;28;1836;-68
2021/05/18 13:28:02;;;;;;;;;;;;;;;24.31;32.09;100516.47;5044718;28;1445;-67
2021/05/18 13:30:28;;;;;;;;;;;;;;;24.31;32.69;100514.50;5044370;28;1497;-68
2021/05/18 13:32:54;;;;;;;;;;;;;;;24.33;33.17;100514.19;5049468;28;1490;-68
2021/05/18 13:35:20;;;;;;;;;;;;;;;24.30;33.62;100509.31;5050302;28;1902;-68
2021/05/18 13:37:46;;;;;;;;;;;;;;;24.26;34.38;100517.41;5052276;28;1242;-67
2021/05/18 13:40:13;;;;;;;;;;;;;;;24.19;34.92;100513.56;5052081;28;1210;-68
2021/05/18 13:42:38;;;;;;;;;;;;;;;24.19;36.27;100517.09;5052669;28;1281;-68
2021/05/18 13:45:04;;;;;;;;;;;;;;;24.33;33.88;100514.19;5052458;28;1202;-68
2021/05/18 13:47:29;;;;;;;;;;;;;;;24.29;34.83;100510.47;5052600;28;1081;-71
2021/05/18 13:49:55;;;;;;;;;;;;;;;24.28;38.10;100514.34;5046860;28;1872;-71
2021/05/18 13:52:20;;;;;;;;;;;;;;;24.14;39.82;100511.75;5039466;28;2047;-70
2021/05/18 13:54:45;;;;;;;;;;;;;;;24.12;41.92;100517.56;5040183;28;2074;-71
2021/05/18 13:57:10;;;;;;;;;;;;;;;24.10;42.52;100522.59;5022996;28;1906;-71
2021/05/18 13:59:36;;;;;;;;;;;;;;;24.08;43.27;100516.59;5033629;28;806;-69
2021/05/18 14:02:01;;;;;;;;;;;;;;;24.10;43.02;100519.03;5040376;28;1363;-71
2021/05/18 14:04:27;;;;;;;;;;;;;;;24.09;43.80;100525.69;5053474;28;951;-71
2021/05/18 14:09:47;;;;;;;;;;;;;;;24.13;44.19;100510.94;5031161;28;1838;-70
2021/05/18 14:12:12;;;;;;;;;;;;;;;24.24;42.39;100518.88;5046693;28;1652;-70
2021/05/18 14:14:38;;;;;;;;;;;;;;;24.23;43.42;100512.56;5047457;28;1809;-70
2021/05/18 14:17:03;;;;;;;;;;;;;;;24.30;40.91;100523.09;5044975;28;1953;-70
2021/05/18 14:19:29;;;;;;;;;;;;;;;24.19;44.68;100513.56;5041273;28;1641;-70
2021/05/18 14:21:54;;;;;;;;;;;;;;;24.13;43.50;100504.66;5031549;28;1606;-70
2021/05/18 14:24:34;;;;;;;;;;;;;;;24.10;43.33;100513.53;5038813;28;1614;-69
2021/05/18 14:26:59;;;;;;;;;;;;;;;24.09;42.38;100511.94;5052265;28;1736;-69
2021/05/18 14:29:25;;;;;;;;;;;;;;;24.07;43.49;100517.75;5052707;28;1906;-70
2021/05/18 14:31:53;;;;;;;;;;;;;;;24.09;43.61;100511.94;5044306;28;1904;-69
2021/05/18 14:34:19;;;;;;;;;;;;;;;24.07;42.21;100516.94;5051601;28;1740;-69
2021/05/18 14:36:44;;;;;;;;;;;;;;;24.08;41.85;100516.59;5044274;28;1983;-69
2021/05/18 14:39:11;;;;;;;;;;;;;;;24.16;40.50;100511.44;5030072;28;1859;-69
2021/05/18 14:44:25;;;;;;;;;;;;;;;24.11;41.41;100518.72;5052364;28;1646;-70
2021/05/18 14:47:03;;;;;;;;;;;;;;;24.24;41.39;100514.19;5052026;28;1729;-69
2021/05/18 14:55:32;;;;;;;;;;;;;;;24.16;41.32;100515.00;5051108;28;1746;-70
2021/05/18 14:58:02;;;;;;;;;;;;;;;24.25;40.45;100507.56;5029843;28;1797;-71
2021/05/18 15:00:28;;;;;;;;;;;;;;;24.44;40.15;100509.94;5051269;28;1405;-73
2021/05/18 15:02:54;;;;;;;;;;;;;;;24.36;41.57;100515.47;5042880;28;1780;-71
2021/05/18 15:05:20;;;;;;;;;;;;;;;24.41;41.46;100521.63;5045702;28;891;-70
2021/05/18 15:07:45;;;;;;;;;;;;;;;24.44;40.01;100515.47;5032488;28;819;-72
2021/05/18 15:10:11;;;;;;;;;;;;;;;24.53;39.78;100521.00;5030319;28;1724;-71
2021/05/18 15:12:36;;;;;;;;;;;;;;;24.51;39.92;100526.81;5023882;28;2045;-71
2021/05/18 15:15:02;;;;;;;;;;;;;;;24.44;41.50;100523.72;5023648;28;1807;-69
2021/05/18 15:17:27;;;;;;;;;;;;;;;24.33;42.92;100522.44;5041340;28;2023;-69
2021/05/18 15:19:53;;;;;;;;;;;;;;;24.35;41.74;100522.94;5044081;28;1868;-69
2021/05/18 15:22:19;;;;;;;;;;;;;;;24.35;42.76;100520.19;5038679;28;1391;-70
2021/05/18 15:24:44;;;;;;;;;;;;;;;24.27;43.95;100515.50;5048188;28;1884;-71
2021/05/18 15:27:10;;;;;;;;;;;;;;;24.28;43.42;100517.09;5048594;28;1143;-71
2021/05/18 15:29:35;;;;;;;;;;;;;;;24.25;43.59;100526.00;5051176;28;1845;-71
2021/05/18 15:32:01;;;;;;;;;;;;;;;24.24;43.89;100522.44;5042168;28;1712;-69
2021/05/18 15:34:27;;;;;;;;;;;;;;;24.34;42.37;100529.56;5051101;28;838;-73
2021/05/18 15:36:54;;;;;;;;;;;;;;;24.45;41.16;100530.06;5050171;28;1918;-71
2021/05/18 15:39:19;;;;;;;;;;;;;;;24.47;40.27;100536.03;5051232;28;908;-71
2021/05/18 15:41:45;;;;;;;;;;;;;;;24.46;40.88;100542.66;5050468;28;1518;-71
2021/05/18 15:44:10;;;;;;;;;;;;;;;24.46;40.20;100548.19;5050820;28;831;-70
2021/05/18 15:46:35;;;;;;;;;;;;;;;24.55;38.88;100540.75;5044928;28;1917;-71
2021/05/18 15:49:00;;;;;;;;;;;;;;;24.50;38.76;100541.72;5041580;28;1873;-71
2021/05/18 15:51:26;;;;;;;;;;;;;;;24.50;39.07;100546.41;5044148;28;1549;-71
2021/05/18 15:53:51;;;;;;;;;;;;;;;24.42;39.52;100549.97;5050935;28;1339;-70
2021/05/18 15:56:18;;;;;;;;;;;;;;;24.47;38.93;100552.56;5050171;28;1886;-71
2021/05/18 15:58:44;;;;;;;;;;;;;;;24.49;38.61;100558.56;5050302;28;1569;-72
2021/05/18 16:01:09;;;;;;;;;;;;;;;24.44;39.85;100562.25;5049763;28;1709;-71
2021/05/18 16:03:34;;;;;;;;;;;;;;;24.33;42.11;100561.78;5023821;28;1768;-71
2021/05/18 16:06:02;;;;;;;;;;;;;;;24.35;42.14;100566.97;5045401;28;2116;-71
2021/05/18 16:10:53;;;;;;;;;;;;;;;24.41;39.85;100567.59;5049194;28;1617;-69
2021/05/18 16:13:18;;;;;;;;;;;;;;;24.52;40.38;100572.47;5046387;28;1530;-73
2021/05/18 16:15:44;;;;;;;;;;;;;;;24.51;39.97;100578.34;5029749;28;1936;-70
2021/05/18 16:18:09;;;;;;;;;;;;;;;24.34;43.91;100576.34;5046845;28;1833;-71
2021/05/18 16:20:34;;;;;;;;;;;;;;;24.24;44.57;100582.19;5048200;28;1781;-71
2021/05/18 16:23:00;;;;;;;;;;;;;;;24.23;41.56;100586.06;5035133;28;1761;-71
2021/05/18 16:25:25;;;;;;;;;;;;;;;24.30;43.30;100580.88;5032718;28;1268;-70
2021/05/18 16:27:50;;;;;;;;;;;;;;;24.21;44.45;100585.59;5036676;28;1676;-70
2021/05/18 16:30:16;;;;;;;;;;;;;;;24.16;44.46;100586.53;5048583;28;1415;-71
2021/05/18 16:32:41;;;;;;;;;;;;;;;24.12;42.24;100585.56;5048843;28;1403;-70
2021/05/18 16:35:06;;;;;;;;;;;;;;;24.19;38.93;100590.59;5048287;28;1412;-71
2021/05/18 16:37:32;;;;;;;;;;;;;;;24.17;42.57;100598.38;5035170;28;1910;-71
2021/05/18 16:39:57;;;;;;;;;;;;;;;24.09;42.16;100600.78;5037346;28;1136;-71
2021/05/18 16:42:23;;;;;;;;;;;;;;;24.05;42.84;100599.81;5047236;28;1423;-71
2021/05/18 16:44:48;;;;;;;;;;;;;;;24.01;42.57;100606.28;5036352;28;1547;-70
2021/05/18 16:47:13;;;;;;;;;;;;;;;24.03;40.65;100606.75;5034798;28;921;-71
2021/05/18 16:49:38;;;;;;;;;;;;;;;24.08;38.12;100606.59;5047789;28;1570;-71
2021/05/18 16:52:04;;;;;;;;;;;;;;;24.03;41.80;100609.53;5042718;28;1467;-71
2021/05/18 16:54:29;;;;;;;;;;;;;;;24.03;39.14;100613.06;5041257;28;1709;-72
2021/05/18 16:56:55;;;;;;;;;;;;;;;24.04;42.32;100619.38;5037245;28;1889;-73
2021/05/18 16:59:20;;;;;;;;;;;;;;;23.99;42.83;100620.34;5043131;28;1686;-72
2021/05/18 17:01:47;;;;;;;;;;;;;;;23.98;43.52;100620.66;5046031;28;1339;-72
2021/05/18 17:04:13;;;;;;;;;;;;;;;23.96;42.19;100626.47;5047430;28;1466;-72
2021/05/18 17:06:38;;;;;;;;;;;;;;;23.95;43.00;100624.06;5048655;28;861;-72
2021/05/18 17:09:05;;;;;;;;;;;;;;;23.93;41.79;100635.38;5051029;28;925;-72
2021/05/18 17:11:30;;;;;;;;;;;;;;;23.91;42.94;100637.66;5049932;28;1246;-72
2021/05/18 17:13:56;;;;;;;;;;;;;;;23.88;41.98;100647.31;5052217;28;870;-71
2021/05/18 17:16:21;;;;;;;;;;;;;;;23.85;40.13;100641.66;5051710;28;1886;-72
2021/05/18 17:18:46;;;;;;;;;;;;;;;23.81;41.22;100646.19;5051656;28;897;-72
2021/05/18 17:21:12;;;;;;;;;;;;;;;23.81;42.54;100657.19;5051479;28;886;-71
2021/05/18 17:23:38;;;;;;;;;;;;;;;23.78;40.87;100650.38;5051854;28;997;-71
2021/05/18 17:26:09;;;;;;;;;;;;;;;23.77;40.77;100651.50;5052159;28;1214;-71
2021/05/18 17:28:37;;;;;;;;;;;;;;;23.76;41.39;100654.53;5052471;28;901;-71
2021/05/18 17:31:02;;;;;;;;;;;;;;;23.75;43.01;100662.00;5052456;28;881;-72
2021/05/18 17:33:30;;;;;;;;;;;;;;;23.75;42.45;100655.69;5052283;28;822;-72
2021/05/18 17:35:56;;;;;;;;;;;;;;;23.70;40.43;100651.13;5051959;28;1942;-71
2021/05/18 17:38:21;;;;;;;;;;;;;;;23.67;41.31;100655.31;5052239;28;779;-72
2021/05/18 17:40:47;;;;;;;;;;;;;;;23.67;42.06;100663.56;5051727;28;1263;-70
2021/05/18 17:43:14;;;;;;;;;;;;;;;23.64;40.00;100664.22;5052291;28;940;-71
2021/05/18 17:45:39;;;;;;;;;;;;;;;23.66;42.57;100674.88;5051978;28;901;-70
2021/05/18 17:48:07;;;;;;;;;;;;;;;23.64;41.87;100671.63;5051639;28;779;-71
2021/05/18 17:50:33;;;;;;;;;;;;;;;23.63;41.44;100678.28;5033986;28;1429;-72
2021/05/18 17:52:58;;;;;;;;;;;;;;;23.61;41.07;100681.34;5052257;28;909;-71
2021/05/18 17:55:23;;;;;;;;;;;;;;;23.62;42.71;100676.63;5050829;28;1263;-71
2021/05/18 17:57:49;;;;;;;;;;;;;;;23.62;41.24;100676.63;5051882;28;1946;-72
2021/05/18 18:00:14;;;;;;;;;;;;;;;23.60;43.70;100684.38;5051655;28;897;-71
2021/05/18 18:02:40;;;;;;;;;;;;;;;23.59;41.92;100691.03;5052432;28;827;-72
2021/05/18 18:05:06;;;;;;;;;;;;;;;23.59;42.36;100697.34;5052190;28;866;-73
2021/05/18 18:07:31;;;;;;;;;;;;;;;23.61;42.27;100692.34;5051672;28;1174;-73
2021/05/18 18:09:58;;;;;;;;;;;;;;;23.55;42.02;100693.59;5051222;28;1235;-75